Time;durP1;ratioP1;P1;durP2;ratioP2;P2;SDS_P1;SDS_P2;PMS_P1;PMS_P2;Temp;Humidity;BMP_temperature;BMP_pressure;BME280_temperature;BME280_humidity;BME280_pressure;Samples;Min_cycle;Max_cycle;Signal;HPM_P1;HPM_P2
2023/08/16 00:00:38;;;;;;;3.75;2.60;;;;;;;14.83;95.25;102014.22;6279309;22;20479;-75
2023/08/16 00:03:05;;;;;;;3.35;2.50;;;;;;;14.84;95.51;102010.34;6252995;22;20051;-76
2023/08/16 00:05:32;;;;;;;5.80;2.50;;;;;;;14.78;95.59;102006.75;6279837;22;20016;-76
2023/08/16 00:07:59;;;;;;;3.40;2.63;;;;;;;14.77;95.00;102008.69;6280827;22;20016;-75
2023/08/16 00:10:26;;;;;;;4.72;2.40;;;;;;;14.74;95.17;102006.88;6280137;22;20482;-76
2023/08/16 00:12:52;;;;;;;5.70;2.75;;;;;;;14.76;95.48;102001.09;6280611;22;20020;-76
2023/08/16 00:15:19;;;;;;;3.65;2.30;;;;;;;14.72;94.99;102009.25;6279048;22;20020;-76
2023/08/16 00:17:47;;;;;;;2.85;2.60;;;;;;;14.67;95.05;101999.84;6252930;22;20027;-76
2023/08/16 00:20:15;;;;;;;2.88;2.60;;;;;;;14.66;95.29;102006.38;6252898;22;20025;-76
2023/08/16 00:22:44;;;;;;;3.28;2.90;;;;;;;14.63;95.91;102006.50;6228475;22;20026;-76
2023/08/16 00:25:11;;;;;;;5.13;2.58;;;;;;;14.64;95.73;102010.69;6253701;22;20017;-75
2023/08/16 00:27:38;;;;;;;2.65;2.47;;;;;;;14.65;96.26;102012.19;6279773;22;20528;-76
2023/08/16 00:30:06;;;;;;;2.83;2.60;;;;;;;14.66;96.25;102019.03;6226859;22;20016;-76
2023/08/16 00:32:33;;;;;;;3.10;2.78;;;;;;;14.67;96.51;102017.84;6251951;22;20105;-76
2023/08/16 00:35:00;;;;;;;4.03;2.30;;;;;;;14.67;96.33;102021.28;6280295;22;20021;-76
2023/08/16 00:37:26;;;;;;;3.90;2.63;;;;;;;14.66;96.46;102019.78;6226998;22;20359;-76
2023/08/16 00:39:53;;;;;;;5.18;3.08;;;;;;;14.62;97.31;102024.53;6280211;22;20017;-76
2023/08/16 00:42:19;;;;;;;3.83;2.70;;;;;;;14.60;97.38;102026.88;6280577;22;20004;-76
2023/08/16 00:44:46;;;;;;;3.95;2.65;;;;;;;14.60;97.62;102024.22;6281181;22;20013;-76
2023/08/16 00:47:13;;;;;;;3.25;2.65;;;;;;;14.60;97.77;102029.56;6281419;22;20150;-76
2023/08/16 00:49:41;;;;;;;4.03;2.50;;;;;;;14.59;97.43;102021.97;6280770;22;20012;-75
2023/08/16 00:52:09;;;;;;;4.63;2.80;;;;;;;14.58;97.66;102028.50;6254322;22;20012;-77
2023/08/16 00:54:37;;;;;;;2.83;2.67;;;;;;;14.54;97.86;102036.66;6280317;22;20020;-75
2023/08/16 00:57:04;;;;;;;3.70;2.70;;;;;;;14.51;97.28;102042.88;6254220;22;20055;-77
2023/08/16 00:59:31;;;;;;;3.05;2.60;;;;;;;14.48;97.36;102041.06;6252752;22;20020;-76
2023/08/16 01:01:57;;;;;;;2.42;2.25;;;;;;;14.48;97.07;102045.69;6281380;22;20016;-76
2023/08/16 01:04:24;;;;;;;5.57;2.42;;;;;;;14.45;97.22;102046.56;6253287;22;20027;-76
2023/08/16 01:06:57;;;;;;;2.58;2.38;;;;;;;14.41;97.65;102040.53;6281504;22;20070;-76
2023/08/16 01:09:25;;;;;;;2.53;2.30;;;;;;;14.39;97.49;102050.97;6253384;22;20016;-76
2023/08/16 01:12:03;;;;;;;9.57;2.40;;;;;;;14.34;96.98;102046.91;6281248;22;20019;-76
2023/08/16 01:14:45;;;;;;;6.13;2.30;;;;;;;14.30;96.78;102040.91;6280199;22;20086;-76
2023/08/16 01:17:14;;;;;;;2.20;2.10;;;;;;;14.28;97.05;102041.34;6281244;22;20012;-75
2023/08/16 01:19:42;;;;;;;6.60;2.50;;;;;;;14.24;96.81;102042.63;6280246;22;20058;-75
2023/08/16 01:22:53;;;;;;;2.50;2.30;;;;;;;14.17;96.89;102040.19;6281501;22;20027;-75
2023/08/16 01:25:45;;;;;;;2.53;2.42;;;;;;;14.19;97.15;102040.50;6280804;22;20016;-76
2023/08/16 01:28:12;;;;;;;2.70;2.50;;;;;;;14.18;97.16;102042.44;6280875;22;20051;-75
2023/08/16 01:30:41;;;;;;;2.72;2.50;;;;;;;14.18;97.93;102049.72;6280840;22;20012;-76
2023/08/16 01:33:09;;;;;;;2.83;2.63;;;;;;;14.16;98.04;102049.41;6281611;22;20434;-76
2023/08/16 01:35:37;;;;;;;3.47;2.92;;;;;;;14.15;98.01;102053.25;6252897;22;20047;-75
2023/08/16 01:38:05;;;;;;;3.92;3.00;;;;;;;14.16;98.25;102054.75;6253871;22;20020;-76
2023/08/16 01:40:44;;;;;;;2.92;2.67;;;;;;;14.16;98.39;102060.88;6281160;22;20044;-76
2023/08/16 01:43:15;;;;;;;3.95;3.25;;;;;;;14.14;98.14;102063.22;6253423;22;20016;-76
2023/08/16 01:45:42;;;;;;;4.90;2.75;;;;;;;14.07;98.47;102066.13;6280810;22;20027;-76
2023/08/16 01:48:10;;;;;;;4.20;2.95;;;;;;;14.03;98.93;102060.88;6254295;22;20017;-76
2023/08/16 01:50:37;;;;;;;5.47;2.50;;;;;;;14.05;98.54;102057.03;6280576;22;20566;-76
2023/08/16 01:53:04;;;;;;;4.38;3.38;;;;;;;14.06;98.93;102053.16;6253531;22;20023;-75
2023/08/16 01:55:31;;;;;;;3.30;2.95;;;;;;;14.04;98.88;102058.94;6248103;22;20574;-75
2023/08/16 01:57:59;;;;;;;5.20;3.33;;;;;;;13.97;99.71;102054.59;6248193;22;20090;-75
2023/08/16 02:00:25;;;;;;;5.22;3.53;;;;;;;13.96;100.00;102055.03;6248331;22;20395;-76
2023/08/16 02:02:52;;;;;;;3.58;3.28;;;;;;;13.97;100.00;102059.19;6250367;22;20069;-76
2023/08/16 02:05:19;;;;;;;3.85;3.55;;;;;;;13.99;100.00;102059.53;6248348;22;20095;-76
2023/08/16 02:07:46;;;;;;;4.38;3.40;;;;;;;14.00;100.00;102055.63;6250869;22;20017;-75
2023/08/16 02:10:12;;;;;;;6.63;3.67;;;;;;;14.01;100.00;102055.22;6250637;22;20017;-76
2023/08/16 02:12:39;;;;;;;10.20;4.10;;;;;;;14.02;100.00;102056.72;6247655;22;20016;-76
2023/08/16 02:15:06;;;;;;;4.65;3.83;;;;;;;14.07;100.00;102052.75;6248691;22;20075;-75
2023/08/16 02:17:33;;;;;;;4.75;3.97;;;;;;;14.09;100.00;102045.03;6247933;22;20108;-76
2023/08/16 02:19:59;;;;;;;6.28;4.28;;;;;;;14.10;100.00;102048.44;6248472;22;20021;-75
2023/08/16 02:22:27;;;;;;;4.20;3.90;;;;;;;14.12;100.00;102046.09;6249779;22;20017;-76
2023/08/16 02:25:08;;;;;;;5.45;4.05;;;;;;;14.12;100.00;102044.16;6248364;22;20532;-75
2023/08/16 02:27:35;;;;;;;7.68;4.35;;;;;;;14.12;100.00;102054.88;6249701;22;20928;-75
2023/08/16 02:30:02;;;;;;;4.85;3.75;;;;;;;14.13;100.00;102056.38;6248506;22;20427;-76
2023/08/16 02:32:29;;;;;;;4.43;4.03;;;;;;;14.15;100.00;102048.66;6249889;22;20065;-76
2023/08/16 02:34:55;;;;;;;4.45;4.03;;;;;;;14.16;100.00;102060.88;6248857;22;20073;-76
2023/08/16 02:37:23;;;;;;;8.57;4.25;;;;;;;14.15;100.00;102067.41;6222632;22;20023;-75
2023/08/16 02:39:50;;;;;;;3.95;3.58;;;;;;;14.12;100.00;102076.28;6247890;22;20533;-76
2023/08/16 02:42:17;;;;;;;3.45;3.25;;;;;;;14.12;100.00;102072.88;6250349;22;20040;-75
2023/08/16 02:44:44;;;;;;;3.97;3.50;;;;;;;14.11;100.00;102074.78;6248872;22;20021;-77
2023/08/16 02:47:11;;;;;;;4.38;3.97;;;;;;;14.10;100.00;102073.31;6248594;22;20095;-76
2023/08/16 02:49:37;;;;;;;3.88;3.55;;;;;;;14.07;100.00;102068.81;6247949;22;20437;-76
2023/08/16 02:52:04;;;;;;;4.93;3.58;;;;;;;14.07;100.00;102074.16;6248455;22;20465;-76
2023/08/16 02:54:31;;;;;;;4.38;3.20;;;;;;;14.07;100.00;102068.81;6265516;22;20074;-76
2023/08/16 02:56:57;;;;;;;3.70;3.40;;;;;;;14.02;100.00;102064.00;6253680;22;20018;-77
2023/08/16 02:59:24;;;;;;;3.40;3.15;;;;;;;13.99;100.00;102076.31;6227628;22;20031;-74
2023/08/16 03:01:50;;;;;;;3.30;3.03;;;;;;;13.97;100.00;102073.34;6281093;22;20073;-75
2023/08/16 03:04:17;;;;;;;3.58;3.08;;;;;;;13.93;100.00;102072.69;6253103;22;20027;-76
2023/08/16 03:06:44;;;;;;;5.38;3.20;;;;;;;13.89;100.00;102061.34;6280929;22;20012;-76
2023/08/16 03:09:11;;;;;;;4.63;2.97;;;;;;;13.88;100.00;102061.78;6280557;22;20018;-75
2023/08/16 03:11:37;;;;;;;4.93;3.28;;;;;;;13.85;100.00;102057.28;6252783;22;20016;-75
2023/08/16 03:14:04;;;;;;;4.30;3.90;;;;;;;13.80;100.00;102065.84;6253577;22;20020;-74
2023/08/16 03:16:31;;;;;;;4.03;3.70;;;;;;;13.76;100.00;102057.94;6252752;22;20079;-75
2023/08/16 03:19:00;;;;;;;3.72;3.45;;;;;;;13.76;100.00;102057.19;6228085;22;20024;-75
2023/08/16 03:21:26;;;;;;;4.45;3.90;;;;;;;13.74;100.00;102054.19;6280222;22;20130;-75
2023/08/16 03:23:53;;;;;;;4.43;3.47;;;;;;;13.73;100.00;102060.72;6280531;22;20023;-75
2023/08/16 03:26:19;;;;;;;4.97;3.55;;;;;;;13.68;100.00;102060.06;6252371;22;20020;-75
2023/08/16 03:28:46;;;;;;;4.90;3.45;;;;;;;13.66;100.00;102067.78;6253623;22;20020;-76
2023/08/16 03:31:13;;;;;;;3.40;3.17;;;;;;;13.64;100.00;102058.66;6228475;22;20484;-76
2023/08/16 03:33:41;;;;;;;4.63;3.70;;;;;;;13.60;100.00;102071.41;6279686;22;20393;-75
2023/08/16 03:36:09;;;;;;;5.75;3.60;;;;;;;13.59;100.00;102070.69;6253262;22;20016;-75
2023/08/16 03:38:36;;;;;;;3.70;3.30;;;;;;;13.57;100.00;102078.38;6279642;22;20074;-76
2023/08/16 03:41:03;;;;;;;6.82;3.70;;;;;;;13.56;100.00;102081.50;6253141;22;20027;-75
2023/08/16 03:43:31;;;;;;;4.28;3.72;;;;;;;13.54;100.00;102087.25;6252532;22;20036;-76
2023/08/16 03:45:58;;;;;;;3.67;3.40;;;;;;;13.54;100.00;102087.25;6227917;22;20024;-76
2023/08/16 03:48:26;;;;;;;3.90;3.60;;;;;;;13.54;100.00;102091.88;6279997;22;20047;-77
2023/08/16 03:50:53;;;;;;;4.28;3.50;;;;;;;13.52;100.00;102094.22;6253670;22;20020;-77
2023/08/16 03:53:19;;;;;;;3.95;3.55;;;;;;;13.50;100.00;102097.31;6278967;22;20078;-77
2023/08/16 03:55:46;;;;;;;4.65;3.30;;;;;;;13.52;100.00;102099.56;6281336;22;20071;-77
2023/08/16 03:58:13;;;;;;;3.20;3.00;;;;;;;13.51;100.00;102106.84;6280562;22;20016;-75
2023/08/16 04:00:40;;;;;;;4.10;3.30;;;;;;;13.50;100.00;102102.66;6252348;22;20020;-76
2023/08/16 04:03:07;;;;;;;4.05;3.30;;;;;;;13.50;100.00;102100.00;6280620;22;20448;-75
2023/08/16 04:05:36;;;;;;;3.13;2.92;;;;;;;13.52;100.00;102100.31;6279734;22;20070;-75
2023/08/16 04:08:03;;;;;;;5.03;3.03;;;;;;;13.52;100.00;102102.25;6252432;22;20012;-75
2023/08/16 04:10:30;;;;;;;3.55;3.22;;;;;;;13.50;100.00;102100.00;6279740;22;20016;-75
2023/08/16 04:12:56;;;;;;;5.13;3.08;;;;;;;13.46;100.00;102095.91;6253309;22;20437;-76
2023/08/16 04:15:23;;;;;;;2.83;2.67;;;;;;;13.42;100.00;102092.59;6252895;22;20016;-76
2023/08/16 04:17:50;;;;;;;3.63;3.40;;;;;;;13.39;100.00;102094.19;6281616;22;20016;-75
2023/08/16 04:20:16;;;;;;;3.47;3.17;;;;;;;13.34;100.00;102092.78;6253883;22;20039;-75
2023/08/16 04:22:43;;;;;;;3.10;2.88;;;;;;;13.33;100.00;102103.91;6280886;22;20042;-75
2023/08/16 04:25:10;;;;;;;6.25;3.22;;;;;;;13.32;100.00;102100.50;6254270;22;20095;-76
2023/08/16 04:27:37;;;;;;;3.40;3.20;;;;;;;13.32;100.00;102105.84;6253682;22;20272;-75
2023/08/16 04:30:05;;;;;;;3.47;3.17;;;;;;;13.33;100.00;102104.66;6254191;22;20016;-75
2023/08/16 04:32:32;;;;;;;3.72;3.10;;;;;;;13.34;100.00;102103.50;6253429;22;20055;-76
2023/08/16 04:34:59;;;;;;;3.35;3.05;;;;;;;13.36;100.00;102103.06;6254250;22;20020;-75
2023/08/16 04:37:25;;;;;;;4.28;3.00;;;;;;;13.34;100.00;102108.84;6253127;22;20016;-75
2023/08/16 04:39:52;;;;;;;3.70;3.30;;;;;;;13.35;100.00;102106.91;6229369;22;20410;-75
2023/08/16 04:42:19;;;;;;;3.08;2.88;;;;;;;13.31;100.00;102112.34;6253566;22;20450;-76
2023/08/16 04:44:47;;;;;;;3.42;2.85;;;;;;;13.31;100.00;102111.59;6281595;22;20394;-75
2023/08/16 04:47:14;;;;;;;3.40;2.97;;;;;;;13.30;100.00;102115.47;6254231;22;20016;-75
2023/08/16 04:49:41;;;;;;;2.92;2.75;;;;;;;13.32;100.00;102110.44;6280661;22;20020;-75
2023/08/16 04:52:08;;;;;;;3.95;2.70;;;;;;;13.32;100.00;102116.53;6280994;22;20016;-75
2023/08/16 04:54:34;;;;;;;4.63;2.92;;;;;;;13.33;100.00;102118.03;6253072;22;20462;-75
2023/08/16 04:57:02;;;;;;;3.08;2.70;;;;;;;13.38;100.00;102113.34;6254387;22;20067;-75
2023/08/16 04:59:31;;;;;;;3.67;3.17;;;;;;;13.43;100.00;102118.91;6253318;22;20373;-76
2023/08/16 05:01:58;;;;;;;3.13;2.90;;;;;;;13.47;100.00;102114.22;6253897;22;20020;-76
2023/08/16 05:04:25;;;;;;;3.53;3.22;;;;;;;13.53;100.00;102117.88;6252604;22;20458;-76
2023/08/16 05:06:51;;;;;;;7.20;3.05;;;;;;;13.58;100.00;102122.69;6281647;22;20442;-76
2023/08/16 05:09:18;;;;;;;6.55;3.20;;;;;;;13.64;100.00;102131.66;6253774;22;20551;-75
2023/08/16 05:11:45;;;;;;;6.72;2.92;;;;;;;13.67;100.00;102124.72;6281521;22;20024;-75
2023/08/16 05:14:12;;;;;;;7.68;3.17;;;;;;;13.68;100.00;102126.22;6253966;22;20074;-75
2023/08/16 05:16:38;;;;;;;3.42;3.10;;;;;;;13.71;100.00;102113.91;6253379;22;20087;-75
2023/08/16 05:19:05;;;;;;;3.20;2.90;;;;;;;13.74;100.00;102113.81;6280463;22;20050;-75
2023/08/16 05:21:33;;;;;;;4.10;3.20;;;;;;;13.78;100.00;102125.16;6253116;22;20473;-76
2023/08/16 05:24:00;;;;;;;3.38;3.17;;;;;;;14.01;100.00;102132.09;6254685;22;20040;-75
2023/08/16 05:26:26;;;;;;;3.95;3.28;;;;;;;15.31;96.91;102131.63;6280604;22;20012;-75
2023/08/16 05:28:53;;;;;;;3.13;2.92;;;;;;;17.90;84.76;102136.31;6254108;22;20129;-75
2023/08/16 05:31:20;;;;;;;3.08;2.88;;;;;;;19.77;73.66;102137.25;6280921;22;20020;-75
2023/08/16 05:33:47;;;;;;;3.80;2.58;;;;;;;21.07;66.81;102146.41;6254409;22;20012;-75
2023/08/16 05:36:14;;;;;;;4.15;2.70;;;;;;;22.09;62.45;102147.38;6282032;22;20478;-75
2023/08/16 05:38:40;;;;;;;3.33;3.00;;;;;;;22.29;60.57;102144.53;6280312;22;20008;-75
2023/08/16 05:41:07;;;;;;;4.18;3.30;;;;;;;22.26;60.46;102142.78;6281442;22;20016;-75
2023/08/16 05:43:33;;;;;;;3.88;3.20;;;;;;;22.81;58.20;102146.88;6280446;22;20012;-75
2023/08/16 05:46:00;;;;;;;3.33;3.13;;;;;;;23.72;56.23;102153.81;6279750;22;20044;-75
2023/08/16 05:48:27;;;;;;;3.40;3.17;;;;;;;24.28;54.37;102159.84;6279795;22;20023;-75
2023/08/16 05:50:53;;;;;;;7.85;3.50;;;;;;;24.92;53.22;102158.47;6254571;22;20020;-75
2023/08/16 05:53:20;;;;;;;4.95;3.92;;;;;;;25.27;51.64;102157.69;6280303;22;20013;-75
2023/08/16 05:55:46;;;;;;;4.10;3.70;;;;;;;25.37;51.69;102158.13;6281215;22;20082;-75
2023/08/16 05:58:13;;;;;;;5.43;4.53;;;;;;;25.58;50.88;102152.97;6281478;22;20019;-75
2023/08/16 06:00:40;;;;;;;4.30;3.92;;;;;;;26.15;50.65;102157.31;6253826;22;20020;-75
2023/08/16 06:03:07;;;;;;;4.78;3.78;;;;;;;25.68;51.38;102156.84;6280954;22;20019;-76
2023/08/16 06:05:34;;;;;;;4.43;3.90;;;;;;;25.39;52.18;102160.34;6253175;22;20064;-75
2023/08/16 06:08:00;;;;;;;5.00;4.50;;;;;;;25.50;52.25;102154.78;6281369;22;20016;-75
2023/08/16 06:10:27;;;;;;;4.13;3.72;;;;;;;25.55;52.48;102171.09;6280404;22;20016;-75
2023/08/16 06:12:54;;;;;;;5.10;4.15;;;;;;;25.18;53.14;102165.50;6281686;22;20012;-78
2023/08/16 06:15:21;;;;;;;5.35;3.83;;;;;;;24.96;54.12;102171.84;6280438;22;20051;-78
2023/08/16 06:17:48;;;;;;;4.07;3.10;;;;;;;24.66;54.09;102169.03;6253371;22;20032;-79
2023/08/16 06:20:14;;;;;;;4.03;3.20;;;;;;;24.00;56.13;102170.03;6253508;22;20030;-78
2023/08/16 06:22:41;;;;;;;4.50;3.42;;;;;;;23.68;57.80;102164.19;6252615;22;20020;-78
2023/08/16 06:25:09;;;;;;;5.82;3.30;;;;;;;23.06;59.38;102169.63;6281044;22;20020;-78
2023/08/16 06:27:36;;;;;;;4.70;3.30;;;;;;;22.65;61.58;102169.28;6280268;22;20494;-77
2023/08/16 06:30:02;;;;;;;4.18;3.13;;;;;;;22.29;62.44;102179.78;6280765;22;20016;-78
2023/08/16 06:32:29;;;;;;;8.75;3.72;;;;;;;22.02;64.00;102169.53;6252432;22;20087;-78
2023/08/16 06:34:56;;;;;;;7.43;3.83;;;;;;;21.90;65.41;102179.56;6280797;22;20046;-78
2023/08/16 06:37:22;;;;;;;6.53;3.70;;;;;;;22.10;65.79;102175.25;6279603;22;20095;-76
2023/08/16 06:39:49;;;;;;;6.60;3.63;;;;;;;22.26;64.81;102175.34;6280581;22;20070;-77
2023/08/16 06:42:16;;;;;;;3.70;3.40;;;;;;;22.10;64.41;102178.69;6280652;22;20019;-77
2023/08/16 06:44:43;;;;;;;11.13;3.80;;;;;;;21.91;65.67;102174.88;6252924;22;20078;-77
2023/08/16 06:47:09;;;;;;;4.55;4.07;;;;;;;21.77;65.92;102181.94;6280388;22;20012;-77
2023/08/16 06:49:36;;;;;;;3.65;3.35;;;;;;;21.78;65.90;102177.25;6252732;22;20562;-78
2023/08/16 06:52:03;;;;;;;6.20;3.75;;;;;;;21.72;66.70;102177.22;6281228;22;20024;-77
2023/08/16 06:54:30;;;;;;;5.60;3.65;;;;;;;21.61;66.85;102177.13;6227085;22;20450;-76
2023/08/16 06:56:57;;;;;;;3.67;3.38;;;;;;;21.59;66.55;102172.19;6280646;22;20016;-76
2023/08/16 06:59:25;;;;;;;4.03;3.05;;;;;;;21.62;67.07;102176.66;6252412;22;20410;-77
2023/08/16 07:01:52;;;;;;;5.63;3.95;;;;;;;21.69;66.68;102178.19;6279392;22;20022;-78
2023/08/16 07:04:19;;;;;;;6.05;3.10;;;;;;;21.65;67.76;102180.38;6280382;22;20442;-76
2023/08/16 07:06:45;;;;;;;6.60;3.50;;;;;;;21.64;66.99;102190.47;6253763;22;20078;-78
2023/08/16 07:09:12;;;;;;;4.22;3.10;;;;;;;21.57;66.89;102184.78;6280624;22;20023;-77
2023/08/16 07:11:38;;;;;;;8.20;3.47;;;;;;;21.55;67.44;102187.97;6279996;22;20012;-76
2023/08/16 07:14:05;;;;;;;6.15;3.22;;;;;;;21.48;67.54;102196.53;6280751;22;20099;-76
2023/08/16 07:16:33;;;;;;;6.90;3.30;;;;;;;21.46;67.59;102204.38;6279098;22;20016;-76
2023/08/16 07:19:00;;;;;;;3.17;2.90;;;;;;;21.41;67.26;102198.91;6280772;22;20024;-76
2023/08/16 07:21:27;;;;;;;6.20;3.22;;;;;;;21.27;68.09;102200.50;6279850;22;20016;-76
2023/08/16 07:23:54;;;;;;;5.00;3.17;;;;;;;21.29;68.62;102201.53;6253031;22;20017;-77
2023/08/16 07:26:22;;;;;;;3.25;2.95;;;;;;;21.29;68.74;102206.19;6279843;22;20035;-76
2023/08/16 07:28:51;;;;;;;7.15;3.70;;;;;;;21.41;68.25;102209.75;6280588;22;20000;-75
2023/08/16 07:31:24;;;;;;;5.57;3.20;;;;;;;21.42;67.94;102214.69;6279363;22;20413;-76
2023/08/16 07:33:52;;;;;;;7.72;3.30;;;;;;;21.47;68.02;102211.28;6228043;22;20453;-76
2023/08/16 07:36:19;;;;;;;6.63;3.45;;;;;;;21.60;67.38;102208.91;6279778;22;20016;-75
2023/08/16 07:38:48;;;;;;;6.45;3.90;;;;;;;21.74;67.56;102209.25;6253130;22;20043;-76
2023/08/16 07:41:15;;;;;;;4.95;3.70;;;;;;;21.93;66.86;102199.53;6280469;22;20016;-75
2023/08/16 07:43:42;;;;;;;3.47;3.15;;;;;;;22.12;67.81;102202.63;6279829;22;20345;-75
2023/08/16 07:46:09;;;;;;;3.67;3.08;;;;;;;22.18;65.20;102204.13;6279609;22;20188;-75
2023/08/16 07:48:36;;;;;;;4.97;3.30;;;;;;;22.08;64.66;102200.13;6252208;22;20466;-75
2023/08/16 07:51:02;;;;;;;6.32;2.70;;;;;;;21.94;64.33;102195.59;6279627;22;20059;-75
2023/08/16 07:53:29;;;;;;;4.15;2.28;;;;;;;22.10;64.83;102203.09;6251712;22;20082;-76
2023/08/16 07:55:56;;;;;;;4.72;2.53;;;;;;;22.21;63.86;102192.31;6253651;22;20023;-76
2023/08/16 07:58:23;;;;;;;3.33;2.53;;;;;;;22.33;63.88;102195.09;6279170;22;20016;-75
2023/08/16 08:00:53;;;;;;;4.43;2.28;;;;;;;22.34;62.49;102202.75;6280354;22;20055;-76
2023/08/16 08:03:21;;;;;;;5.97;2.10;;;;;;;22.33;62.41;102192.38;6279806;22;20040;-76
2023/08/16 08:05:48;;;;;;;2.63;1.85;;;;;;;22.35;61.90;102187.94;6253300;22;20012;-76
2023/08/16 08:08:14;;;;;;;5.07;1.85;;;;;;;22.47;60.53;102194.88;6280400;22;20020;-76
2023/08/16 08:10:44;;;;;;;4.95;2.10;;;;;;;22.49;59.48;102194.41;6279831;22;20016;-75
2023/08/16 08:13:11;;;;;;;2.28;1.70;;;;;;;22.67;59.82;102196.69;6279963;22;20047;-76
2023/08/16 08:15:38;;;;;;;3.75;1.90;;;;;;;22.81;59.22;102195.00;6279787;22;20074;-77
2023/08/16 08:18:04;;;;;;;2.60;1.40;;;;;;;22.84;58.67;102191.31;6280411;22;20024;-77
2023/08/16 08:20:31;;;;;;;2.85;1.80;;;;;;;23.00;58.51;102195.31;6252529;22;20044;-77
2023/08/16 08:22:58;;;;;;;5.25;1.75;;;;;;;23.16;58.87;102194.59;6281476;22;20039;-77
2023/08/16 08:25:25;;;;;;;5.63;1.75;;;;;;;23.36;58.21;102204.47;6280211;22;20380;-77
2023/08/16 08:27:52;;;;;;;3.83;1.55;;;;;;;23.49;57.48;102207.44;6252793;22;20024;-77
2023/08/16 08:30:19;;;;;;;2.50;1.52;;;;;;;23.51;56.01;102216.59;6252646;22;20086;-77
2023/08/16 08:32:46;;;;;;;3.20;1.50;;;;;;;23.48;56.29;102214.09;6227807;22;20092;-77
2023/08/16 08:35:13;;;;;;;2.22;1.40;;;;;;;23.37;55.68;102209.41;6279790;22;20040;-76
2023/08/16 08:37:39;;;;;;;4.15;1.60;;;;;;;23.38;56.69;102210.16;6279143;22;20024;-77
2023/08/16 08:40:06;;;;;;;2.15;1.63;;;;;;;23.37;54.11;102211.38;6280032;22;20038;-77
2023/08/16 08:42:33;;;;;;;1.77;1.33;;;;;;;23.40;54.07;102211.13;6278909;22;20095;-77
2023/08/16 08:45:01;;;;;;;1.92;1.40;;;;;;;23.50;53.20;102217.81;6279832;22;20206;-77
2023/08/16 08:47:30;;;;;;;2.08;1.20;;;;;;;23.75;51.98;102216.09;6251999;22;20016;-77
2023/08/16 08:49:58;;;;;;;4.80;1.38;;;;;;;23.96;52.52;102218.53;6280280;22;20012;-77
2023/08/16 08:52:26;;;;;;;2.72;1.27;;;;;;;24.07;52.63;102219.22;6251976;22;20072;-76
2023/08/16 08:54:53;;;;;;;2.08;1.40;;;;;;;24.08;51.54;102222.69;6279672;22;20462;-77
2023/08/16 08:57:21;;;;;;;1.40;1.30;;;;;;;24.05;53.22;102215.53;6251173;22;20047;-77
2023/08/16 08:59:49;;;;;;;3.63;1.67;;;;;;;24.20;52.47;102224.88;6252513;22;20019;-77
2023/08/16 09:02:17;;;;;;;3.03;1.40;;;;;;;24.40;52.27;102220.38;6280693;22;20012;-78
2023/08/16 09:04:46;;;;;;;4.30;1.60;;;;;;;24.75;51.46;102230.63;6280773;22;20535;-77
2023/08/16 09:07:17;;;;;;;1.35;1.20;;;;;;;24.82;49.98;102217.19;6254301;22;20020;-76
2023/08/16 09:09:44;;;;;;;4.72;1.42;;;;;;;24.85;50.30;102221.63;6281346;22;20066;-75
2023/08/16 09:12:13;;;;;;;5.30;1.40;;;;;;;25.02;49.07;102213.41;6253660;22;20071;-75
2023/08/16 09:14:40;;;;;;;1.30;1.20;;;;;;;24.93;48.50;102216.41;6252953;22;20527;-75
2023/08/16 09:17:06;;;;;;;3.97;1.58;;;;;;;24.97;48.59;102224.31;6281189;22;20043;-75
2023/08/16 09:19:33;;;;;;;6.15;1.80;;;;;;;25.10;48.63;102224.50;6280745;22;20091;-75
2023/08/16 09:21:59;;;;;;;2.45;1.17;;;;;;;25.26;48.17;102221.63;6253686;22;20026;-76
2023/08/16 09:24:26;;;;;;;2.35;1.30;;;;;;;25.42;47.90;102225.47;6252986;22;20092;-74
2023/08/16 09:26:53;;;;;;;1.38;1.20;;;;;;;25.38;46.71;102229.72;6280676;22;20020;-74
2023/08/16 09:29:19;;;;;;;2.03;1.30;;;;;;;25.37;46.90;102223.53;6280468;22;20012;-74
2023/08/16 09:31:46;;;;;;;5.57;1.55;;;;;;;25.49;47.98;102222.19;6253527;22;20086;-74
2023/08/16 09:34:19;;;;;;;2.05;1.58;;;;;;;25.57;46.22;102223.13;6254552;22;20016;-75
2023/08/16 09:36:45;;;;;;;3.28;1.25;;;;;;;25.75;47.16;102221.72;6282063;22;20027;-74
2023/08/16 09:39:12;;;;;;;3.97;1.33;;;;;;;25.69;44.74;102221.03;6281191;22;20022;-78
2023/08/16 09:41:48;;;;;;;1.30;1.17;;;;;;;25.75;46.83;102219.00;6280001;22;20022;-74
2023/08/16 09:44:15;;;;;;;4.10;1.60;;;;;;;25.85;45.58;102216.69;6280815;22;20032;-75
2023/08/16 09:46:42;;;;;;;4.32;1.60;;;;;;;25.96;45.16;102222.03;6252813;22;20020;-73
2023/08/16 09:49:11;;;;;;;4.90;1.20;;;;;;;26.20;45.54;102215.78;6280438;22;20078;-73
2023/08/16 09:51:43;;;;;;;1.20;1.08;;;;;;;26.11;43.78;102219.63;6278509;22;20681;-74
2023/08/16 09:54:14;;;;;;;2.58;1.17;;;;;;;25.81;44.15;102216.22;6280352;22;20055;-74
2023/08/16 09:56:45;;;;;;;2.38;1.40;;;;;;;25.80;43.84;102220.94;6279099;22;20021;-74
2023/08/16 09:59:18;;;;;;;1.30;1.20;;;;;;;25.81;44.83;102210.78;6279910;22;20017;-74
2023/08/16 10:01:48;;;;;;;1.30;1.08;;;;;;;25.93;43.58;102214.88;6280764;22;20454;-74
2023/08/16 10:04:18;;;;;;;1.92;1.40;;;;;;;25.95;43.34;102215.09;6253657;22;20052;-74
2023/08/16 10:07:06;;;;;;;2.97;1.48;;;;;;;25.82;42.31;102207.53;6281034;22;20710;-74
2023/08/16 10:09:36;;;;;;;1.75;1.25;;;;;;;25.78;43.45;102207.06;6279248;22;20012;-75
2023/08/16 10:12:04;;;;;;;1.23;1.13;;;;;;;25.88;42.91;102205.50;6280547;22;20013;-74
2023/08/16 10:14:31;;;;;;;1.52;1.10;;;;;;;25.93;44.00;102201.22;6278982;22;20062;-75
2023/08/16 10:17:01;;;;;;;1.65;1.30;;;;;;;25.85;44.09;102200.31;6280683;22;20508;-75
2023/08/16 10:19:33;;;;;;;4.38;1.30;;;;;;;25.85;44.19;102205.78;6252866;22;20031;-74
2023/08/16 10:22:02;;;;;;;1.52;1.42;;;;;;;25.95;43.11;102198.72;6280768;22;20020;-74
2023/08/16 10:24:34;;;;;;;5.60;1.60;;;;;;;25.80;43.89;102190.94;6279221;22;20012;-73
2023/08/16 10:27:19;;;;;;;18.98;1.88;;;;;;;25.89;44.07;102198.78;6280196;22;20053;-73
2023/08/16 10:29:52;;;;;;;24.33;3.22;;;;;;;26.02;44.76;102189.22;6280364;22;20083;-72
2023/08/16 10:32:24;;;;;;;3.88;1.42;;;;;;;26.12;43.87;102188.34;6280274;22;20012;-72
2023/08/16 10:34:55;;;;;;;1.52;1.30;;;;;;;26.12;43.92;102193.06;6280713;22;20083;-73
2023/08/16 10:37:22;;;;;;;1.00;1.00;;;;;;;25.95;43.68;102198.72;6279574;22;20496;-73
2023/08/16 10:39:51;;;;;;;4.32;1.50;;;;;;;26.01;43.99;102201.38;6279805;22;20016;-73
2023/08/16 10:42:25;;;;;;;1.55;1.02;;;;;;;26.02;42.71;102195.41;6251400;22;20107;-73
2023/08/16 10:44:52;;;;;;;1.42;1.13;;;;;;;26.15;42.54;102195.50;6280277;22;20020;-73
2023/08/16 10:47:31;;;;;;;3.00;1.10;;;;;;;26.33;42.55;102196.81;6279867;22;20016;-73
2023/08/16 10:50:01;;;;;;;1.23;1.13;;;;;;;26.14;42.47;102194.03;6280471;22;20008;-73
2023/08/16 10:52:30;;;;;;;1.55;1.10;;;;;;;26.07;41.45;102197.34;6279266;22;20012;-73
2023/08/16 10:54:59;;;;;;;1.00;0.95;;;;;;;25.83;43.40;102189.19;6279609;22;20016;-73
2023/08/16 10:57:26;;;;;;;1.27;1.17;;;;;;;25.65;42.96;102198.78;6279597;22;20052;-73
2023/08/16 11:00:05;;;;;;;1.00;1.00;;;;;;;25.49;43.34;102194.94;6280627;22;20016;-73
2023/08/16 11:02:35;;;;;;;1.45;1.00;;;;;;;25.44;42.17;102197.72;6280168;22;20452;-72
2023/08/16 11:05:03;;;;;;;1.10;1.10;;;;;;;25.22;41.46;102201.34;6280362;22;20012;-71
2023/08/16 11:07:30;;;;;;;17.63;2.33;;;;;;;25.19;40.60;102207.84;6279193;22;20020;-72
2023/08/16 11:10:00;;;;;;;4.07;1.23;;;;;;;25.34;42.15;102204.72;6252690;22;20016;-72
2023/08/16 11:12:30;;;;;;;20.48;2.53;;;;;;;25.50;42.18;102203.84;6280394;22;20022;-74
2023/08/16 11:14:58;;;;;;;1.10;1.10;;;;;;;25.97;42.24;102204.41;6280611;22;20050;-74
2023/08/16 11:17:26;;;;;;;9.15;1.50;;;;;;;26.37;41.38;102207.44;6279548;22;20016;-77
2023/08/16 11:19:54;;;;;;;12.40;1.63;;;;;;;26.45;40.18;102203.59;6253908;22;20017;-76
2023/08/16 11:22:22;;;;;;;1.20;1.10;;;;;;;26.35;40.10;102205.22;6279175;22;20027;-74
2023/08/16 11:24:50;;;;;;;1.30;1.20;;;;;;;26.37;41.32;102196.53;6280453;22;20016;-74